Time;durP1;ratioP1;P1;durP2;ratioP2;P2;SDS_P1;SDS_P2;PMS_P1;PMS_P2;Temp;Humidity;BMP_temperature;BMP_pressure;BME280_temperature;BME280_humidity;BME280_pressure;Samples;Min_cycle;Max_cycle;Signal;HPM_P1;HPM_P2
2022/08/03 00:00:54;;;;;;;8.10;5.17;;;21.10;1.00;;;;;;5113320;28;20439;-77
2022/08/03 00:03:22;;;;;;;6.50;5.90;;;21.10;1.00;;;;;;5113311;28;20844;-77
2022/08/03 00:05:49;;;;;;;6.27;5.23;;;21.10;1.00;;;;;;5115080;28;20438;-77
2022/08/03 00:08:16;;;;;;;5.43;4.80;;;21.10;1.00;;;;;;5117366;28;20901;-78
2022/08/03 00:10:42;;;;;;;5.97;4.97;;;21.00;1.00;;;;;;5117930;28;20467;-78
2022/08/03 00:13:11;;;;;;;7.57;5.17;;;21.10;1.00;;;;;;5116950;28;20446;-77
2022/08/03 00:15:39;;;;;;;5.73;4.87;;;21.10;1.00;;;;;;5117068;28;20456;-77
2022/08/03 00:18:05;;;;;;;5.47;4.93;;;20.70;1.00;;;;;;5116917;28;20482;-77
2022/08/03 00:20:34;;;;;;;6.93;4.63;;;21.10;1.00;;;;;;5116673;28;20450;-77
2022/08/03 00:23:00;;;;;;;5.63;5.00;;;21.10;1.00;;;;;;5116842;28;20447;-77
2022/08/03 00:25:27;;;;;;;6.73;5.03;;;21.10;1.00;;;;;;5117001;28;20435;-77
2022/08/03 00:27:54;;;;;;;8.40;5.43;;;21.10;1.00;;;;;;5116812;28;20474;-77
2022/08/03 00:30:21;;;;;;;5.80;5.30;;;20.90;1.00;;;;;;5116350;28;20486;-77
2022/08/03 00:32:47;;;;;;;5.80;5.20;;;21.00;1.00;;;;;;5116769;28;20812;-76
2022/08/03 00:35:14;;;;;;;7.40;5.90;;;20.90;1.00;;;;;;5116772;28;20451;-77
2022/08/03 00:37:42;;;;;;;12.80;5.60;;;20.90;1.00;;;;;;5116808;28;20447;-77
2022/08/03 00:40:11;;;;;;;5.70;5.20;;;20.80;1.00;;;;;;5116527;28;20467;-77
2022/08/03 00:42:47;;;;;;;6.00;5.50;;;20.80;1.00;;;;;;5116662;28;20809;-77
2022/08/03 00:45:14;;;;;;;10.67;5.20;;;20.80;1.00;;;;;;5116200;28;20430;-77
2022/08/03 00:47:41;;;;;;;8.20;6.40;;;20.70;1.00;;;;;;5116413;28;20447;-77
2022/08/03 00:50:08;;;;;;;5.23;4.70;;;20.70;1.00;;;;;;5116247;28;20595;-77
2022/08/03 00:52:35;;;;;;;5.97;4.90;;;20.60;1.00;;;;;;5116369;28;20450;-77
2022/08/03 00:55:04;;;;;;;6.40;5.90;;;20.60;1.00;;;;;;5115990;28;20439;-77
2022/08/03 00:57:32;;;;;;;6.17;5.67;;;20.60;1.00;;;;;;5115885;28;20953;-77
2022/08/03 00:59:59;;;;;;;6.23;5.73;;;20.60;1.00;;;;;;5116040;28;20830;-77
2022/08/03 01:02:26;;;;;;;6.90;5.70;;;20.60;1.00;;;;;;5116008;28;20438;-77
2022/08/03 01:04:53;;;;;;;6.57;5.97;;;20.60;1.00;;;;;;5116028;28;20454;-77
2022/08/03 01:07:31;;;;;;;6.43;5.00;;;20.70;1.00;;;;;;5116724;28;20447;-77
2022/08/03 01:10:02;;;;;;;8.10;5.40;;;20.70;1.00;;;;;;5115747;28;20499;-77
2022/08/03 01:12:37;;;;;;;8.63;5.33;;;20.70;1.00;;;;;;5115803;28;20424;-77
2022/08/03 01:15:12;;;;;;;8.23;6.10;;;20.70;1.00;;;;;;5115783;28;20431;-77
2022/08/03 01:17:49;;;;;;;9.70;6.20;;;20.70;1.00;;;;;;5115337;27;20426;-77
2022/08/03 01:20:18;;;;;;;6.80;6.00;;;20.70;1.00;;;;;;5115672;28;20424;-77
2022/08/03 01:23:05;;;;;;;9.57;5.40;;;20.70;1.00;;;;;;5115637;28;20446;-78
2022/08/03 01:25:40;;;;;;;7.73;5.30;;;20.70;1.00;;;;;;5115301;28;20427;-77
2022/08/03 01:28:27;;;;;;;5.97;5.07;;;20.70;1.00;;;;;;5115388;28;20431;-77
2022/08/03 01:30:58;;;;;;;8.20;5.17;;;20.70;1.00;;;;;;5115096;28;20463;-77
2022/08/03 01:33:33;;;;;;;6.50;5.40;;;20.70;1.00;;;;;;5115169;28;20897;-77
2022/08/03 01:36:04;;;;;;;6.80;6.10;;;20.80;1.00;;;;;;5115410;28;20426;-77
2022/08/03 01:38:34;;;;;;;6.80;5.20;;;20.70;1.00;;;;;;5114935;28;20469;-77
2022/08/03 01:41:05;;;;;;;7.10;5.80;;;20.80;1.00;;;;;;5114907;28;20431;-77
2022/08/03 01:43:32;;;;;;;5.80;5.30;;;20.80;1.00;;;;;;5114778;28;20431;-77
2022/08/03 01:46:01;;;;;;;6.20;5.40;;;20.90;1.00;;;;;;5114692;28;20447;-77
2022/08/03 01:48:30;;;;;;;7.10;6.37;;;20.90;1.00;;;;;;5114796;28;20466;-77
2022/08/03 01:50:57;;;;;;;5.43;4.93;;;20.90;1.00;;;;;;5114798;28;20845;-77
2022/08/03 01:53:25;;;;;;;6.00;4.87;;;20.90;1.00;;;;;;5115191;28;20847;-77
2022/08/03 01:55:55;;;;;;;6.33;4.70;;;20.90;1.00;;;;;;5115105;28;20454;-77
2022/08/03 01:58:24;;;;;;;4.63;4.07;;;20.90;1.00;;;;;;5114583;28;20512;-77
2022/08/03 02:00:52;;;;;;;5.27;4.87;;;20.90;1.00;;;;;;5114838;28;20526;-77
2022/08/03 02:03:23;;;;;;;5.20;4.80;;;20.90;1.00;;;;;;5114882;28;20849;-77
2022/08/03 02:05:51;;;;;;;5.00;4.03;;;20.90;1.00;;;;;;5114428;28;20901;-77
2022/08/03 02:08:19;;;;;;;5.27;4.87;;;20.90;1.00;;;;;;5114479;28;20482;-77
2022/08/03 02:10:47;;;;;;;6.67;5.33;;;20.90;1.00;;;;;;5114575;28;20517;-77
2022/08/03 02:13:16;;;;;;;5.63;5.07;;;20.90;1.00;;;;;;5114663;28;20901;-77
2022/08/03 02:15:43;;;;;;;6.30;4.80;;;20.90;1.00;;;;;;5114384;28;20447;-77
2022/08/03 02:18:11;;;;;;;4.90;4.50;;;20.90;1.00;;;;;;5114674;28;20467;-77
2022/08/03 02:20:42;;;;;;;4.73;4.30;;;20.90;1.00;;;;;;5114686;28;20443;-77
2022/08/03 02:23:09;;;;;;;5.13;4.70;;;20.90;1.00;;;;;;5114736;28;20431;-77
2022/08/03 02:25:42;;;;;;;5.57;4.90;;;21.00;1.00;;;;;;5114465;28;20446;-78
2022/08/03 02:28:15;;;;;;;6.00;4.80;;;21.00;1.00;;;;;;5113916;28;20470;-76
2022/08/03 02:30:45;;;;;;;5.40;4.90;;;21.00;1.00;;;;;;5114556;28;20837;-76
2022/08/03 02:33:19;;;;;;;4.70;4.30;;;20.90;1.00;;;;;;5114323;28;20447;-76
2022/08/03 02:35:49;;;;;;;5.80;4.80;;;21.00;1.00;;;;;;5114315;28;20424;-76
2022/08/03 02:38:18;;;;;;;5.80;5.30;;;21.00;1.00;;;;;;5114102;28;20577;-76
2022/08/03 02:40:46;;;;;;;5.47;5.07;;;21.00;1.00;;;;;;5114063;28;20496;-76
2022/08/03 02:43:19;;;;;;;5.73;5.23;;;21.00;1.00;;;;;;5114277;28;20512;-78
2022/08/03 02:45:49;;;;;;;5.37;4.97;;;21.00;1.00;;;;;;5114182;28;20430;-76
2022/08/03 02:48:18;;;;;;;4.97;4.57;;;21.00;1.00;;;;;;5114063;28;20467;-77
2022/08/03 02:50:47;;;;;;;5.20;4.80;;;20.90;1.00;;;;;;5114116;28;20977;-76
2022/08/03 02:53:16;;;;;;;5.03;4.57;;;20.90;1.00;;;;;;5114057;28;20447;-76
2022/08/03 02:55:44;;;;;;;5.83;4.80;;;21.00;1.00;;;;;;5113770;28;20447;-78
2022/08/03 02:58:13;;;;;;;5.20;4.50;;;21.00;1.00;;;;;;5113967;28;20463;-76
2022/08/03 03:00:41;;;;;;;5.13;4.73;;;21.00;1.00;;;;;;5113974;28;20466;-76
2022/08/03 03:03:09;;;;;;;4.53;4.23;;;21.00;1.00;;;;;;5113908;28;20443;-76
2022/08/03 03:05:37;;;;;;;8.80;5.20;;;21.00;1.00;;;;;;5113853;28;20850;-76
2022/08/03 03:08:05;;;;;;;5.50;4.97;;;21.10;1.00;;;;;;5113490;28;20507;-76
2022/08/03 03:10:32;;;;;;;5.30;4.70;;;21.00;1.00;;;;;;5113647;28;20471;-76
2022/08/03 03:13:00;;;;;;;6.27;4.90;;;21.00;1.00;;;;;;5113691;28;20442;-76
2022/08/03 03:15:29;;;;;;;5.60;5.10;;;21.00;1.00;;;;;;5113624;28;20447;-76
2022/08/03 03:17:57;;;;;;;6.20;5.47;;;20.80;1.00;;;;;;5113287;28;20949;-76
2022/08/03 03:20:25;;;;;;;6.20;5.20;;;20.80;1.00;;;;;;5113181;28;20960;-76
2022/08/03 03:22:52;;;;;;;6.00;5.27;;;20.80;1.00;;;;;;5113576;28;20933;-76
2022/08/03 03:25:21;;;;;;;5.87;4.77;;;20.70;1.00;;;;;;5113543;28;20801;-76
2022/08/03 03:27:48;;;;;;;6.53;5.10;;;;;;;;;;5113392;28;20442;-76
2022/08/03 03:30:15;;;;;;;5.53;5.03;;;20.50;1.00;;;;;;5113362;28;20530;-76
2022/08/03 03:32:42;;;;;;;7.17;6.47;;;20.50;1.00;;;;;;5113462;28;20790;-76
2022/08/03 03:35:10;;;;;;;5.60;5.10;;;20.50;1.00;;;;;;5113434;28;20439;-78
2022/08/03 03:37:36;;;;;;;5.10;4.70;;;20.40;1.00;;;;;;5113907;28;20454;-77
2022/08/03 03:40:04;;;;;;;6.40;5.20;;;20.40;1.00;;;;;;5113321;28;20467;-77
2022/08/03 03:42:32;;;;;;;5.97;5.47;;;20.50;1.00;;;;;;5117370;28;20439;-77
2022/08/03 03:45:02;;;;;;;8.43;5.60;;;20.40;1.00;;;;;;5117262;28;20443;-77
2022/08/03 03:47:29;;;;;;;5.60;5.13;;;20.40;1.00;;;;;;5117665;28;20423;-77
2022/08/03 03:49:57;;;;;;;5.70;5.30;;;20.40;1.00;;;;;;5117506;28;20910;-77
2022/08/03 03:52:24;;;;;;;6.03;5.40;;;20.40;1.00;;;;;;5117391;28;20478;-77
2022/08/03 03:54:51;;;;;;;8.47;6.23;;;20.40;1.00;;;;;;5117386;28;20446;-77
2022/08/03 03:57:17;;;;;;;7.63;5.60;;;20.40;1.00;;;;;;5116947;28;20446;-77
2022/08/03 03:59:45;;;;;;;8.10;6.00;;;20.40;1.00;;;;;;5117326;28;20593;-77
2022/08/03 04:02:12;;;;;;;5.57;5.07;;;20.40;1.00;;;;;;5117248;28;20465;-77
2022/08/03 04:13:00;;;;;;;6.40;5.73;;;20.30;1.00;;;;;;5117201;28;20422;-77
2022/08/03 04:15:31;;;;;;;6.87;6.17;;;20.30;1.00;;;;;;5117212;28;20446;-77
2022/08/03 04:17:59;;;;;;;6.70;5.60;;;20.50;1.00;;;;;;5117388;28;20434;-77
2022/08/03 04:20:30;;;;;;;8.27;5.60;;;20.30;1.00;;;;;;5117118;28;20823;-78
2022/08/03 04:22:58;;;;;;;9.73;6.07;;;20.40;1.00;;;;;;5117035;28;20468;-77
2022/08/03 04:25:29;;;;;;;5.43;4.90;;;20.30;1.00;;;;;;5117133;28;20438;-77
2022/08/03 04:27:58;;;;;;;7.43;6.30;;;20.40;1.00;;;;;;5117012;28;20803;-77
2022/08/03 04:30:28;;;;;;;6.57;5.97;;;20.40;1.00;;;;;;5116837;28;20442;-77
2022/08/03 04:32:57;;;;;;;7.33;5.60;;;20.40;1.00;;;;;;5116806;28;20872;-78
2022/08/03 04:35:24;;;;;;;8.90;6.13;;;20.40;1.00;;;;;;5116482;28;20999;-77
2022/08/03 04:37:53;;;;;;;6.27;5.63;;;20.50;1.00;;;;;;5116536;28;20450;-77
2022/08/03 04:40:25;;;;;;;7.20;5.37;;;20.50;1.00;;;;;;5116550;28;20439;-77
2022/08/03 04:42:54;;;;;;;7.17;6.50;;;20.50;1.00;;;;;;5116078;28;20423;-77
2022/08/03 04:45:21;;;;;;;7.03;5.83;;;20.60;1.00;;;;;;5116423;28;20828;-78
2022/08/03 04:47:50;;;;;;;6.73;5.40;;;20.90;1.00;;;;;;5117214;28;20499;-77
2022/08/03 04:50:17;;;;;;;9.13;6.40;;;20.70;1.00;;;;;;5116298;28;20450;-77
2022/08/03 04:52:44;;;;;;;6.10;5.60;;;20.70;1.00;;;;;;5115349;28;20475;-77
2022/08/03 04:55:11;;;;;;;6.53;5.90;;;20.80;1.00;;;;;;5115885;28;20454;-78
2022/08/03 04:57:38;;;;;;;5.83;5.23;;;20.80;1.00;;;;;;5116389;28;20519;-77
2022/08/03 05:00:06;;;;;;;6.83;5.93;;;20.90;1.00;;;;;;5116163;28;20463;-77
2022/08/03 05:02:33;;;;;;;6.83;6.13;;;20.90;1.00;;;;;;5116295;28;20449;-76
2022/08/03 05:05:01;;;;;;;11.50;6.47;;;20.90;1.00;;;;;;5116139;28;20542;-76
2022/08/03 05:07:29;;;;;;;6.70;5.53;;;20.90;1.00;;;;;;5116611;28;20443;-76
2022/08/03 05:09:55;;;;;;;6.53;6.03;;;20.90;1.00;;;;;;5115578;28;20471;-76
2022/08/03 05:12:22;;;;;;;6.33;4.80;;;20.90;1.00;;;;;;5115813;28;20478;-77
2022/08/03 05:14:49;;;;;;;5.70;5.30;;;21.00;1.00;;;;;;5115818;28;20546;-76
2022/08/03 05:17:15;;;;;;;5.30;4.80;;;21.10;1.00;;;;;;5115596;28;20447;-76
2022/08/03 05:19:42;;;;;;;5.27;4.77;;;21.10;1.00;;;;;;5115748;28;20870;-76
2022/08/03 05:22:10;;;;;;;6.47;5.97;;;21.20;1.00;;;;;;5115727;28;20450;-76
2022/08/03 05:24:37;;;;;;;6.17;5.60;;;21.20;1.00;;;;;;5115607;28;20795;-76
2022/08/03 05:27:04;;;;;;;8.00;5.40;;;21.30;1.00;;;;;;5115566;28;20451;-76
2022/08/03 05:29:31;;;;;;;7.63;5.27;;;21.30;1.00;;;;;;5115443;28;21011;-76
2022/08/03 05:31:57;;;;;;;5.17;4.77;;;21.40;1.00;;;;;;5115681;28;20528;-76
2022/08/03 05:34:24;;;;;;;5.17;4.57;;;21.50;1.00;;;;;;5115422;28;20446;-76
2022/08/03 05:36:51;;;;;;;4.90;4.50;;;21.60;1.00;;;;;;5115376;28;20818;-76
2022/08/03 05:39:19;;;;;;;4.27;4.00;;;21.70;12.00;;;;;;5115298;28;20473;-76
2022/08/03 05:41:45;;;;;;;4.30;4.00;;;21.80;34.50;;;;;;5114977;28;20442;-76
2022/08/03 05:44:12;;;;;;;4.77;4.37;;;21.80;98.40;;;;;;5115970;28;20423;-76
2022/08/03 05:46:39;;;;;;;9.37;4.73;;;21.90;99.90;;;;;;5115363;28;20495;-76
2022/08/03 05:49:05;;;;;;;14.60;5.70;;;22.00;26.80;;;;;;5115149;28;20473;-76
2022/08/03 05:51:32;;;;;;;7.30;4.70;;;22.00;99.90;;;;;;5115072;28;20479;-76
2022/08/03 05:53:59;;;;;;;4.80;4.40;;;22.10;81.90;;;;;;5115437;28;20439;-76
2022/08/03 05:56:27;;;;;;;6.40;5.07;;;22.20;99.90;;;;;;5115012;28;20824;-76
2022/08/03 05:58:54;;;;;;;5.90;4.90;;;22.30;99.90;;;;;;5115019;28;20474;-76
2022/08/03 06:01:21;;;;;;;6.10;4.90;;;22.30;99.90;;;;;;5114796;28;20443;-76
2022/08/03 06:03:48;;;;;;;5.00;4.60;;;22.40;99.90;;;;;;5114595;28;20467;-79
2022/08/03 06:06:15;;;;;;;4.93;4.57;;;22.40;99.90;;;;;;5115316;28;20435;-77
2022/08/03 06:08:43;;;;;;;6.63;5.30;;;22.50;99.90;;;;;;5115127;28;20482;-77
2022/08/03 06:11:10;;;;;;;7.57;5.00;;;22.50;1.00;;;;;;5114562;28;20918;-77
2022/08/03 06:13:38;;;;;;;6.03;5.43;;;22.60;1.00;;;;;;5114916;28;20484;-78
2022/08/03 06:16:06;;;;;;;4.83;4.37;;;22.60;1.00;;;;;;5114377;28;20446;-77
2022/08/03 06:18:33;;;;;;;4.70;4.30;;;22.70;1.00;;;;;;5114297;28;20556;-77
2022/08/03 06:20:59;;;;;;;4.90;4.33;;;22.80;1.00;;;;;;5114333;28;20495;-77
2022/08/03 06:23:26;;;;;;;4.73;4.30;;;22.90;21.30;;;;;;5114412;28;20443;-77
2022/08/03 06:25:53;;;;;;;5.90;4.70;;;22.90;2.10;;;;;;5114300;28;20451;-77
2022/08/03 06:28:19;;;;;;;6.67;6.07;;;23.00;1.00;;;;;;5114365;28;20459;-77
2022/08/03 06:30:47;;;;;;;6.00;4.90;;;23.10;1.00;;;;;;5114417;28;20447;-77
2022/08/03 06:33:15;;;;;;;4.40;4.00;;;23.10;19.40;;;;;;5114054;28;20883;-77
2022/08/03 06:35:41;;;;;;;6.20;4.80;;;23.20;1.00;;;;;;5114012;28;20443;-77
2022/08/03 06:38:08;;;;;;;5.23;4.57;;;23.20;1.00;;;;;;5114129;28;20466;-78
2022/08/03 06:40:38;;;;;;;9.13;4.80;;;23.30;1.00;;;;;;5114832;28;20478;-77
2022/08/03 06:43:06;;;;;;;4.30;3.80;;;23.40;1.00;;;;;;5113594;28;21014;-77
2022/08/03 06:45:34;;;;;;;5.77;5.10;;;23.50;1.00;;;;;;5114067;28;20457;-77
2022/08/03 06:48:03;;;;;;;8.00;4.73;;;23.70;1.00;;;;;;5113697;28;20444;-77
2022/08/03 06:50:30;;;;;;;12.90;5.83;;;23.60;1.00;;;;;;5113898;28;20810;-77
2022/08/03 06:52:57;;;;;;;5.77;5.00;;;23.70;1.00;;;;;;5114312;28;20479;-78
2022/08/03 06:55:24;;;;;;;9.73;5.67;;;23.80;1.00;;;;;;5113918;28;20447;-77
2022/08/03 06:57:51;;;;;;;6.73;5.63;;;23.90;1.00;;;;;;5113710;28;20458;-77
2022/08/03 07:00:18;;;;;;;10.97;5.17;;;23.90;1.00;;;;;;5113558;28;20439;-77
2022/08/03 07:02:45;;;;;;;5.50;4.73;;;23.90;1.00;;;;;;5113845;28;20439;-77
2022/08/03 07:05:13;;;;;;;10.20;6.00;;;24.00;1.00;;;;;;5113917;28;20443;-78
2022/08/03 07:07:40;;;;;;;9.17;5.43;;;24.10;1.00;;;;;;5113695;28;20446;-78
2022/08/03 07:10:08;;;;;;;5.20;3.70;;;24.10;1.00;;;;;;5114251;28;20557;-78
2022/08/03 07:12:35;;;;;;;12.07;6.40;;;24.20;1.00;;;;;;5113833;28;20478;-78
2022/08/03 07:15:03;;;;;;;7.67;4.53;;;24.30;1.00;;;;;;5113490;28;20809;-77
2022/08/03 07:17:31;;;;;;;5.57;3.80;;;24.40;1.00;;;;;;5113769;28;20474;-76
2022/08/03 07:19:58;;;;;;;5.97;5.13;;;24.50;1.00;;;;;;5114018;28;20471;-77
2022/08/03 07:22:27;;;;;;;11.30;8.37;;;24.50;1.00;;;;;;5122914;28;20805;-79
2022/08/03 07:24:53;;;;;;;10.30;6.30;;;24.60;1.00;;;;;;5125211;28;20465;-80
2022/08/03 07:27:21;;;;;;;8.90;6.87;;;24.70;1.00;;;;;;5118187;28;20496;-79
2022/08/03 07:29:48;;;;;;;5.50;4.00;;;24.70;1.00;;;;;;5117189;28;20467;-77
2022/08/03 07:32:15;;;;;;;3.30;3.00;;;24.80;1.00;;;;;;5113190;28;20482;-76
2022/08/03 07:34:41;;;;;;;5.73;3.47;;;24.90;1.00;;;;;;5113437;28;20450;-77
2022/08/03 07:37:08;;;;;;;8.20;3.77;;;25.00;1.00;;;;;;5114146;28;20766;-75
2022/08/03 07:39:51;;;;;;;6.27;3.83;;;25.00;1.00;;;;;;5113381;28;20466;-74
2022/08/03 07:42:18;;;;;;;6.10;3.17;;;25.10;1.00;;;;;;5112982;28;20451;-77
2022/08/03 07:44:45;;;;;;;4.70;3.07;;;25.20;1.00;;;;;;5113459;28;20435;-74
2022/08/03 07:47:11;;;;;;;8.13;3.83;;;25.20;1.00;;;;;;5112958;28;20970;-74
2022/08/03 07:49:41;;;;;;;6.20;3.60;;;25.30;1.00;;;;;;5113109;28;20466;-74
2022/08/03 07:54:53;;;;;;;4.30;3.40;;;25.50;1.00;;;;;;5113333;28;20432;-75
2022/08/03 07:57:20;;;;;;;4.73;3.57;;;25.50;1.00;;;;;;5113468;28;20443;-75
2022/08/03 07:59:47;;;;;;;3.30;3.00;;;25.50;1.00;;;;;;5112917;28;20805;-74
2022/08/03 08:02:14;;;;;;;3.77;3.10;;;25.50;1.00;;;;;;5112805;28;20466;-75
2022/08/03 08:04:40;;;;;;;4.47;4.07;;;25.60;1.00;;;;;;5112945;28;20486;-74
2022/08/03 08:07:07;;;;;;;2.97;2.67;;;25.70;1.00;;;;;;5112671;28;20446;-75
2022/08/03 08:09:34;;;;;;;5.30;4.20;;;25.80;1.00;;;;;;5112700;28;20478;-75
2022/08/03 08:12:02;;;;;;;3.60;3.30;;;25.90;1.00;;;;;;5112859;28;20570;-74
2022/08/03 08:14:29;;;;;;;3.47;2.97;;;26.00;1.00;;;;;;5112941;28;20790;-75
2022/08/03 08:16:56;;;;;;;3.77;3.43;;;26.00;1.00;;;;;;5112588;28;20779;-74
2022/08/03 08:19:23;;;;;;;3.50;3.30;;;26.10;1.00;;;;;;5112812;28;20462;-74
2022/08/03 08:21:49;;;;;;;7.53;3.00;;;26.10;1.00;;;;;;5112509;28;20537;-74
2022/08/03 08:24:16;;;;;;;5.17;3.50;;;26.20;1.00;;;;;;5112433;28;20450;-73
2022/08/03 08:26:43;;;;;;;4.67;2.93;;;26.20;1.00;;;;;;5113624;28;20851;-74
2022/08/03 08:29:11;;;;;;;8.23;2.67;;;26.30;1.00;;;;;;5116598;28;20467;-74
2022/08/03 08:31:37;;;;;;;3.47;3.13;;;26.30;1.00;;;;;;5116486;28;20447;-74
2022/08/03 08:34:06;;;;;;;2.77;2.53;;;26.30;1.00;;;;;;5117006;28;20485;-74
2022/08/03 08:36:33;;;;;;;8.00;3.20;;;26.30;99.90;;;;;;5116429;28;20455;-75
2022/08/03 08:38:59;;;;;;;3.63;3.33;;;26.50;99.90;;;;;;5116483;28;20463;-74
2022/08/03 08:41:27;;;;;;;5.80;3.87;;;26.60;99.90;;;;;;5116392;28;20447;-73
2022/08/03 08:43:54;;;;;;;6.57;4.30;;;26.70;99.90;;;;;;5116417;28;20546;-73
2022/08/03 08:46:22;;;;;;;5.90;3.90;;;26.70;99.90;;;;;;5116307;28;20449;-73
2022/08/03 08:48:51;;;;;;;6.40;5.80;;;26.80;99.90;;;;;;5116151;28;20463;-74
2022/08/03 08:51:19;;;;;;;8.50;4.60;;;26.80;99.90;;;;;;5116262;28;20454;-73
2022/08/03 08:53:51;;;;;;;7.03;4.90;;;26.90;99.90;;;;;;5116209;28;20474;-73
2022/08/03 08:56:20;;;;;;;7.47;6.87;;;26.90;99.90;;;;;;5116005;28;20438;-73
2022/08/03 08:58:51;;;;;;;10.13;9.23;;;26.90;99.90;;;;;;5115971;28;20463;-75
2022/08/03 09:01:18;;;;;;;13.50;11.97;;;26.90;99.90;;;;;;5115979;28;20444;-74
2022/08/03 09:03:47;;;;;;;7.40;6.63;;;26.80;99.90;;;;;;5115880;28;20794;-73
2022/08/03 09:06:14;;;;;;;27.03;24.17;;;26.80;99.90;;;;;;5116002;28;20541;-73
2022/08/03 09:08:41;;;;;;;6.30;5.80;;;26.80;99.90;;;;;;5115796;28;20514;-73
2022/08/03 09:11:08;;;;;;;5.60;5.10;;;26.80;99.90;;;;;;5116256;28;20451;-73
2022/08/03 09:13:35;;;;;;;9.57;6.60;;;26.90;99.90;;;;;;5115793;28;20483;-73
2022/08/03 09:16:16;;;;;;;9.27;6.17;;;26.90;99.90;;;;;;5115850;28;20447;-74
2022/08/03 09:18:44;;;;;;;3.57;2.93;;;26.90;99.90;;;;;;5115747;28;20533;-74
2022/08/03 09:21:17;;;;;;;3.50;3.20;;;27.00;99.90;;;;;;5115605;28;20480;-75
2022/08/03 09:23:46;;;;;;;4.53;3.23;;;27.10;99.90;;;;;;5115582;28;20443;-74
2022/08/03 09:26:13;;;;;;;3.60;3.30;;;27.20;99.90;;;;;;5115462;28;20508;-73
2022/08/03 09:28:39;;;;;;;5.23;3.70;;;27.20;99.90;;;;;;5115902;28;20833;-73
2022/08/03 09:31:07;;;;;;;3.23;2.93;;;27.30;99.90;;;;;;5115452;28;20442;-74
2022/08/03 09:33:46;;;;;;;4.33;3.30;;;27.30;99.90;;;;;;5115365;28;20478;-73
2022/08/03 09:36:36;;;;;;;3.87;3.43;;;27.40;99.90;;;;;;5115607;28;20438;-73
2022/08/03 09:39:05;;;;;;;5.53;3.43;;;27.40;99.90;;;;;;5114846;28;21000;-73
2022/08/03 09:41:33;;;;;;;6.13;3.70;;;27.40;99.90;;;;;;5115401;28;20447;-74
2022/08/03 09:43:59;;;;;;;3.27;3.07;;;27.50;99.90;;;;;;5115413;28;20868;-75
2022/08/03 09:46:30;;;;;;;5.20;3.23;;;27.50;99.90;;;;;;5115256;28;20439;-75
2022/08/03 09:49:10;;;;;;;2.83;2.63;;;27.60;99.90;;;;;;5115113;28;20454;-74
2022/08/03 09:51:38;;;;;;;15.43;3.83;;;27.70;99.90;;;;;;5115051;28;20484;-74
2022/08/03 09:54:06;;;;;;;3.90;1.97;;;27.80;99.90;;;;;;5115390;28;20845;-74
2022/08/03 09:56:40;;;;;;;3.57;3.17;;;27.90;99.90;;;;;;5115000;28;20451;-74
2022/08/03 09:59:07;;;;;;;3.60;2.90;;;28.00;99.90;;;;;;5114921;28;20466;-74
2022/08/03 10:01:34;;;;;;;3.27;2.63;;;28.10;99.90;;;;;;5115043;28;20450;-74
2022/08/03 10:04:01;;;;;;;3.80;3.50;;;28.20;99.90;;;;;;5115057;28;20450;-74
2022/08/03 10:06:28;;;;;;;3.83;2.77;;;28.20;99.90;;;;;;5114671;28;20447;-74
2022/08/03 10:09:07;;;;;;;4.30;2.87;;;28.10;99.90;;;;;;5114944;28;20475;-74
2022/08/03 10:11:35;;;;;;;5.53;2.57;;;28.10;99.90;;;;;;5114905;28;20408;-74
2022/08/03 10:14:03;;;;;;;2.70;2.50;;;28.20;99.90;;;;;;5114523;28;20485;-75
2022/08/03 10:16:33;;;;;;;3.17;2.87;;;28.30;99.90;;;;;;5114748;28;20450;-74
2022/08/03 10:19:00;;;;;;;3.20;3.00;;;28.30;99.90;;;;;;5114671;28;20485;-76
2022/08/03 10:21:32;;;;;;;2.63;2.27;;;28.30;99.90;;;;;;5114617;28;20454;-75
2022/08/03 10:24:02;;;;;;;4.17;2.57;;;28.30;99.90;;;;;;5114407;28;20423;-74
2022/08/03 10:26:32;;;;;;;4.37;2.13;;;28.30;99.90;;;;;;5114511;28;20894;-74
2022/08/03 10:29:01;;;;;;;2.43;2.30;;;28.30;99.90;;;;;;5114418;28;20466;-74
2022/08/03 10:31:34;;;;;;;2.27;2.10;;;28.30;99.90;;;;;;5114931;28;20447;-75
2022/08/03 10:34:03;;;;;;;3.50;3.20;;;28.40;99.90;;;;;;5113628;28;20463;-74
2022/08/03 10:36:33;;;;;;;2.40;2.27;;;28.50;99.90;;;;;;5113971;28;20530;-75
2022/08/03 10:39:02;;;;;;;3.40;2.70;;;28.60;99.90;;;;;;5113757;28;21063;-76
2022/08/03 10:41:36;;;;;;;2.23;2.03;;;28.60;99.90;;;;;;5113814;28;20439;-74
2022/08/03 10:44:06;;;;;;;2.50;2.30;;;28.60;99.90;;;;;;5113748;28;20916;-74
2022/08/03 10:46:34;;;;;;;3.27;2.30;;;28.70;99.90;;;;;;5113943;28;20819;-75
2022/08/03 10:49:02;;;;;;;3.27;2.97;;;28.70;99.90;;;;;;5113728;28;20463;-74
2022/08/03 10:51:30;;;;;;;2.90;2.70;;;28.70;99.90;;;;;;5113683;28;20775;-75
2022/08/03 10:53:59;;;;;;;7.40;3.00;;;28.70;99.90;;;;;;5113677;28;20891;-74
2022/08/03 10:59:59;;;;;;;3.90;2.80;;;28.80;99.90;;;;;;5113683;28;20453;-74
2022/08/03 11:02:59;;;;;;;4.33;3.00;;;28.80;99.90;;;;;;5113759;28;20474;-75
2022/08/03 11:05:28;;;;;;;2.63;2.43;;;28.80;99.90;;;;;;5113566;28;20430;-74
2022/08/03 11:08:22;;;;;;;3.00;2.50;;;29.00;99.90;;;;;;5113315;28;20533;-74
2022/08/03 11:10:50;;;;;;;9.83;3.33;;;28.90;99.90;;;;;;5113640;28;20437;-75
2022/08/03 11:13:21;;;;;;;3.80;3.50;;;29.00;99.90;;;;;;5113490;28;20487;-76
2022/08/03 11:15:50;;;;;;;3.50;2.37;;;29.10;99.90;;;;;;5113612;28;20783;-75
2022/08/03 11:18:17;;;;;;;3.13;2.83;;;29.20;99.90;;;;;;5113588;28;20829;-76
2022/08/03 11:20:49;;;;;;;3.73;3.43;;;29.20;99.90;;;;;;5113505;28;20454;-74
2022/08/03 11:23:17;;;;;;;3.10;2.90;;;29.20;99.90;;;;;;5113600;28;20435;-75
2022/08/03 11:26:09;;;;;;;2.90;2.70;;;29.30;99.90;;;;;;5114350;28;20451;-75
2022/08/03 11:28:38;;;;;;;2.70;2.50;;;29.40;99.90;;;;;;5113165;28;20977;-74
2022/08/03 11:31:46;;;;;;;2.30;2.20;;;29.40;99.90;;;;;;5113495;28;20443;-73
2022/08/03 11:34:15;;;;;;;3.37;2.40;;;29.40;99.90;;;;;;5113496;28;20578;-75
2022/08/03 11:37:21;;;;;;;2.40;2.30;;;29.40;99.90;;;;;;5113526;28;20446;-74
2022/08/03 11:39:50;;;;;;;2.47;2.27;;;29.40;99.90;;;;;;5112993;28;21015;-73
2022/08/03 11:42:39;;;;;;;5.00;3.87;;;29.50;99.90;;;;;;5113428;28;20446;-74
2022/08/03 11:45:09;;;;;;;3.93;2.60;;;29.50;99.90;;;;;;5113313;28;20443;-75
2022/08/03 11:47:39;;;;;;;5.53;2.53;;;29.50;99.90;;;;;;5114054;28;20423;-73
2022/08/03 11:50:06;;;;;;;3.43;3.13;;;29.60;99.90;;;;;;5113155;28;20463;-73
2022/08/03 11:52:38;;;;;;;2.80;2.60;;;29.70;99.90;;;;;;5113188;28;20449;-74
2022/08/03 11:55:10;;;;;;;2.20;2.10;;;29.80;99.90;;;;;;5113888;28;20486;-75
2022/08/03 11:57:37;;;;;;;2.73;2.53;;;29.80;99.90;;;;;;5112720;28;20488;-75
2022/08/03 12:00:20;;;;;;;3.80;2.73;;;29.80;99.90;;;;;;5113118;28;20471;-74
2022/08/03 12:02:59;;;;;;;5.97;2.60;;;29.80;99.90;;;;;;5115762;28;20902;-74
2022/08/03 12:05:37;;;;;;;2.47;2.37;;;29.80;99.90;;;;;;5117006;28;20905;-75
2022/08/03 12:08:04;;;;;;;2.40;2.30;;;29.90;99.90;;;;;;5116596;28;20541;-74
2022/08/03 12:10:31;;;;;;;2.87;2.67;;;29.80;99.90;;;;;;5116795;28;20877;-74
2022/08/03 12:12:59;;;;;;;4.83;2.53;;;29.80;99.90;;;;;;5116847;28;20843;-74
2022/08/03 12:15:27;;;;;;;3.70;2.40;;;29.80;99.90;;;;;;5116652;28;20446;-74
2022/08/03 12:17:56;;;;;;;2.13;2.03;;;29.80;99.90;;;;;;5116659;28;20439;-75
2022/08/03 12:20:24;;;;;;;2.47;2.20;;;29.90;99.90;;;;;;5116740;28;20835;-75
2022/08/03 12:22:51;;;;;;;3.47;3.17;;;29.90;99.90;;;;;;5116948;28;20434;-75
2022/08/03 12:25:23;;;;;;;6.20;2.83;;;30.00;99.90;;;;;;5116635;28;20438;-75
2022/08/03 12:27:50;;;;;;;2.60;2.40;;;30.00;99.90;;;;;;5116770;28;20542;-75
2022/08/03 12:30:17;;;;;;;2.90;2.60;;;30.00;99.90;;;;;;5116735;28;20438;-75
2022/08/03 12:32:45;;;;;;;2.77;2.37;;;30.00;99.90;;;;;;5116441;28;20443;-75
2022/08/03 12:35:23;;;;;;;2.20;2.10;;;30.00;99.90;;;;;;5116495;28;20478;-74
2022/08/03 12:37:50;;;;;;;3.43;2.50;;;30.20;99.90;;;;;;5116558;28;20427;-74
2022/08/03 12:40:24;;;;;;;3.17;2.57;;;30.20;99.90;;;;;;5116488;28;20975;-75
2022/08/03 12:42:51;;;;;;;3.40;3.13;;;30.30;99.90;;;;;;5116749;28;20427;-75
2022/08/03 12:45:19;;;;;;;5.40;3.10;;;30.40;99.90;;;;;;5116804;28;20445;-76
2022/08/03 12:47:53;;;;;;;4.20;3.00;;;30.40;99.90;;;;;;5116455;28;20486;-74
2022/08/03 12:50:29;;;;;;;3.30;2.90;;;30.50;99.90;;;;;;5116664;28;20453;-74
2022/08/03 12:52:57;;;;;;;3.77;3.47;;;30.70;99.90;;;;;;5115948;28;20948;-75
2022/08/03 12:55:32;;;;;;;5.47;5.00;;;30.80;99.90;;;;;;5116130;28;20478;-74
2022/08/03 12:57:59;;;;;;;9.87;7.07;;;30.90;99.90;;;;;;5115754;28;20933;-76
2022/08/03 13:00:26;;;;;;;41.60;36.20;;;30.80;99.90;;;;;;5115895;28;20454;-74
2022/08/03 13:03:01;;;;;;;21.20;18.10;;;30.70;99.90;;;;;;5115898;28;20454;-75
2022/08/03 13:05:29;;;;;;;8.17;7.37;;;30.50;99.90;;;;;;5115933;28;20430;-75
2022/08/03 13:07:56;;;;;;;27.43;19.27;;;30.40;99.90;;;;;;5115398;28;20447;-74
2022/08/03 13:10:30;;;;;;;4.53;3.70;;;30.50;99.90;;;;;;5116670;28;20428;-75
2022/08/03 13:12:58;;;;;;;5.33;3.83;;;30.50;99.90;;;;;;5115262;28;20438;-74
2022/08/03 13:15:26;;;;;;;14.80;12.30;;;30.50;99.90;;;;;;5115401;28;20510;-75
2022/08/03 13:17:54;;;;;;;3.27;2.97;;;30.60;99.90;;;;;;5115610;28;20500;-75